Latest Weather Observations for Scherger

IDQ60801

Issued at 12:02 am EST Thursday 1 September 2016 (issued every 30 minutes, with the page automatically refreshed every 10 minutes)

About weather observations | Map of weather stations | Latest weather observations for QLD | Other Formats
Station Details ID: 027075 Name: SCHERGER RAAF Lat: -12.62 Lon: 142.09 Height: 39.34 m
Data from the previous 72 hours. | See also: Recent months at Scherger
Date/Time
EST
Temp
°C
App
Temp
°C
Dew
Point
°C
Rel
Hum
%
Delta-T
°C
Wind Press
QNH
hPa
Press
MSL
hPa
Rain since
9am
mm
Dir  Spd
km/h
Gust
km/h
Spd
kts
Gust
kts
31/11:30pm 22.9 23.6 17.1 70 3.6 E 9 13 5 7 1015.3 1015.1 0.0
31/11:00pm 23.3 24.5 17.3 69 3.7 E 7 15 4 8 1015.4 1015.2 0.0
31/10:30pm 23.7 24.5 17.2 67 4.0 E 9 15 5 8 1015.4 1015.2 0.0
31/10:00pm 24.1 24.8 17.1 65 4.3 E 9 17 5 9 1015.3 1015.1 0.0
31/09:30pm 24.7 25.5 17.2 63 4.7 E 9 15 5 8 1015.1 1014.9 0.0
31/09:00pm 25.2 25.5 16.9 60 5.1 ESE 11 19 6 10 1014.9 1014.7 0.0
31/08:30pm 25.7 26.3 16.8 58 5.5 ESE 9 20 5 11 1014.5 1014.3 0.0
31/08:00pm 26.2 26.6 16.2 54 6.1 ESE 9 13 5 7 1013.9 1013.7 0.0
31/07:30pm 26.9 26.9 16.2 52 6.6 ESE 11 24 6 13 1013.4 1013.2 0.0
31/07:00pm 27.5 27.3 15.8 48 7.2 ESE 11 17 6 9 1012.7 1012.5 0.0
31/06:30pm 28.3 27.7 15.6 46 7.8 E 13 24 7 13 1012.3 1012.1 0.0
31/06:00pm 29.2 28.6 15.7 44 8.3 E 13 24 7 13 1011.8 1011.6 0.0
31/05:30pm 30.1 29.9 15.8 42 8.9 E 11 22 6 12 1011.4 1011.2 0.0
31/05:00pm 31.2 31.1 16.0 40 9.5 E 11 20 6 11 1011.2 1011.0 0.0
31/04:30pm 31.5 30.5 15.5 38 9.9 ESE 15 26 8 14 1011.0 1010.8 0.0
31/04:00pm 31.7 30.7 15.6 37 10.0 ENE 15 24 8 13 1011.1 1010.9 0.0
31/03:30pm 31.9 31.2 15.4 37 10.2 SE 13 24 7 13 1011.2 1011.0 0.0
31/03:00pm 31.9 30.7 15.0 36 10.4 ESE 15 30 8 16 1011.7 1011.5 0.0
31/02:30pm 32.5 31.8 16.3 37 10.2 E 15 28 8 15 1012.2 1012.0 0.0
31/02:00pm 31.1 29.7 15.5 39 9.7 ESE 17 30 9 16 1012.7 1012.5 0.0
31/01:30pm 31.7 30.1 16.0 38 9.8 ESE 19 30 10 16 1013.4 1013.2 0.0
31/01:00pm 30.7 30.0 16.3 42 9.0 SE 15 28 8 15 1014.0 1013.8 0.0
31/12:30pm 31.6 32.3 17.9 44 8.8 ESE 11 20 6 11 1014.4 1014.2 0.0
31/12:00pm 30.0 30.1 17.5 47 7.9 ESE 13 22 7 12 1015.0 1014.8 0.0
31/11:30am 28.4 28.6 17.6 52 6.8 E 13 22 7 12 1015.6 1015.4 0.0
31/11:00am 28.4 29.2 17.3 51 7.0 ESE 9 17 5 9 1016.0 1015.8 0.0
31/10:30am 28.1 27.4 17.3 52 6.8 E 17 28 9 15 1016.4 1016.2 0.0
31/10:00am 28.1 28.0 17.9 54 6.5 ESE 15 24 8 13 1016.5 1016.3 0.0
31/09:30am 25.9 25.2 18.3 63 4.8 ESE 19 30 10 16 1016.8 1016.6 0.0
31/09:00am 24.9 25.4 18.4 67 4.1 ESE 13 24 7 13 1017.1 1016.9 0.0
31/08:30am 24.3 26.1 18.7 71 3.6 ESE 7 15 4 8 1016.9 1016.7 0.0
31/08:00am 22.6 23.8 18.2 76 2.8 SSE 9 13 5 7 1016.8 1016.6 0.0
31/07:30am 21.4 23.1 18.4 83 1.9 SSE 7 11 4 6 1016.5 1016.3 0.0
31/07:00am 19.6 20.8 17.4 87 1.3 SSE 7 9 4 5 1016.2 1016.0 0.0
31/06:30am 19.7 21.1 17.3 86 1.5 SSE 6 9 3 5 1015.9 1015.7 0.0
31/06:00am 19.7 20.5 17.3 86 1.5 SSE 9 11 5 6 1015.7 1015.5 0.0
31/05:30am 19.5 20.8 17.5 88 1.2 SSE 7 9 4 5 1015.5 1015.3 0.0
31/05:00am 19.6 22.1 17.2 86 1.5 CALM 0 0 0 0 1015.6 1015.4 0.0
31/04:30am 19.8 20.8 16.8 83 1.8 SSE 7 7 4 4 1015.7 1015.5 0.0
31/04:00am 20.3 22.1 17.3 83 1.8 SE 4 7 2 4 1015.7 1015.5 0.0
31/03:30am 20.7 22.5 17.5 82 2.0 SE 4 9 2 5 1015.8 1015.6 0.0
31/03:00am 20.9 22.3 17.7 82 2.0 SE 7 11 4 6 1016.1 1015.9 0.0
31/02:30am 21.0 22.5 17.6 81 2.1 SSE 6 7 3 4 1016.3 1016.1 0.0
31/02:00am 21.6 23.0 17.8 79 2.4 SSE 7 9 4 5 1016.4 1016.2 0.0
31/01:30am 22.3 23.8 18.1 77 2.6 SE 7 13 4 7 1016.5 1016.3 0.0
31/01:00am 22.5 24.0 18.1 76 2.7 SE 7 13 4 7 1016.6 1016.4 0.0
31/12:30am 22.8 24.3 18.1 75 2.9 ESE 7 17 4 9 1016.6 1016.4 0.0
31/12:00am 23.2 23.6 18.1 73 3.2 ESE 13 22 7 12 1016.5 1016.3 0.0
 
Date/Time
EST
Temp
°C
App
Temp
°C
Dew
Point
°C
Rel
Hum
%
Delta-T
°C
Wind Press
QNH
hPa
Press
MSL
hPa
Rain since
9am
mm
Dir  Spd
km/h
Gust
km/h
Spd
kts
Gust
kts
30/11:30pm 23.4 23.7 17.8 71 3.5 ESE 13 28 7 15 1016.6 1016.4 0.0
30/11:00pm 23.6 24.2 17.8 70 3.6 ESE 11 20 6 11 1016.6 1016.4 0.0
30/10:30pm 23.7 23.8 17.4 68 3.9 ESE 13 20 7 11 1016.6 1016.4 0.0
30/10:00pm 23.9 24.3 17.2 66 4.1 ESE 11 20 6 11 1016.7 1016.5 0.0
30/09:30pm 24.3 24.0 17.3 65 4.3 ESE 15 22 8 12 1016.9 1016.7 0.0
30/09:00pm 24.8 23.7 17.3 63 4.7 ESE 19 30 10 16 1016.8 1016.6 0.0
30/08:30pm 25.4 24.7 17.3 61 5.1 E 17 32 9 17 1016.3 1016.1 0.0
30/08:00pm 26.0 26.1 17.4 59 5.4 E 13 24 7 13 1015.9 1015.7 0.0
30/07:30pm 26.7 26.3 17.2 56 5.9 E 15 26 8 14 1015.5 1015.3 0.0
30/07:00pm 27.5 27.1 17.1 53 6.5 ESE 15 26 8 14 1015.0 1014.8 0.0
30/06:30pm 28.1 27.8 17.3 52 6.8 E 15 24 8 13 1014.5 1014.3 0.0
30/06:00pm 29.3 28.4 16.8 47 7.8 E 17 28 9 15 1014.1 1013.9 0.0
30/05:30pm 29.8 30.2 17.3 47 7.9 E 11 20 6 11 1013.9 1013.7 0.0
30/05:00pm 31.3 31.7 17.2 42 9.0 ENE 11 20 6 11 1013.6 1013.4 0.0
30/04:30pm 32.3 31.9 16.2 38 10.1 E 13 24 7 13 1013.2 1013.0 0.0
30/04:00pm 31.3 30.5 16.1 40 9.5 ESE 15 28 8 15 1013.0 1012.8 0.0
30/03:30pm 31.3 30.6 16.5 41 9.3 E 15 24 8 13 1013.2 1013.0 0.0
30/03:00pm 31.2 30.6 15.6 39 9.7 ENE 13 24 7 13 1013.5 1013.3 0.0
30/02:30pm 31.3 30.6 16.5 41 9.3 ESE 15 26 8 14 1013.8 1013.6 0.0
30/02:00pm 32.9 32.9 17.1 39 10.1 ENE 13 24 7 13 1014.4 1014.2 0.0
30/01:30pm 31.4 31.7 16.9 41 9.2 E 11 24 6 13 1014.9 1014.7 0.0
30/01:00pm 30.3 29.8 17.0 44 8.4 E 15 26 8 14 1015.3 1015.1 0.0
30/12:30pm 30.2 29.6 17.6 46 8.0 E 17 30 9 16 1015.7 1015.5 0.0
30/12:00pm 30.3 30.3 18.1 48 7.8 E 15 26 8 14 1016.2 1016.0 0.0
30/11:30am 29.6 29.2 18.1 50 7.4 ESE 17 24 9 13 1016.8 1016.6 0.0
30/11:00am 28.2 27.8 18.0 54 6.5 ESE 17 26 9 14 1017.2 1017.0 0.0
30/10:30am 28.9 29.0 18.4 53 6.7 ENE 15 30 8 16 1017.5 1017.3 0.0
30/10:00am 27.7 27.5 18.4 57 5.9 E 17 32 9 17 1017.7 1017.5 0.0
30/09:30am 26.9 26.9 18.2 59 5.5 SE 15 26 8 14 1017.5 1017.3 0.0
30/09:00am 26.1 26.0 18.8 64 4.7 SE 17 32 9 17 1017.2 1017.0 0.0
30/08:30am 25.3 25.5 18.5 66 4.3 SE 15 26 8 14 1017.0 1016.8 0.0
30/08:00am 24.1 25.5 18.7 72 3.4 SE 9 13 5 7 1016.8 1016.6 0.0
30/07:30am 22.9 24.2 18.4 76 2.8 SSE 9 13 5 7 1016.5 1016.3 0.0
30/07:00am 22.4 23.7 18.4 78 2.5 SSE 9 13 5 7 1016.0 1015.8 0.0
30/06:30am 22.4 24.1 18.4 78 2.5 SE 7 11 4 6 1015.6 1015.4 0.0
30/06:00am 22.6 23.5 18.4 77 2.6 SSE 11 17 6 9 1014.9 1014.7 0.0
30/05:30am 22.6 23.9 18.4 77 2.6 ESE 9 13 5 7 1014.8 1014.6 0.0
30/05:00am 22.9 24.6 18.4 76 2.8 ESE 7 11 4 6 1014.7 1014.5 0.0
30/04:30am 23.1 24.8 18.4 75 3.0 ESE 7 11 4 6 1014.6 1014.4 0.0
30/04:00am 23.5 24.4 18.4 73 3.2 SE 11 19 6 10 1014.4 1014.2 0.0
30/03:30am 23.5 24.4 18.4 73 3.2 SE 11 17 6 9 1014.4 1014.2 0.0
30/03:00am 23.7 24.7 18.6 73 3.2 SE 11 17 6 9 1014.6 1014.4 0.0
30/02:30am 23.7 25.1 18.6 73 3.2 ESE 9 13 5 7 1014.9 1014.7 0.0
30/02:00am 23.3 25.0 18.4 74 3.1 SE 7 11 4 6 1015.0 1014.8 0.0
30/01:30am 23.2 25.0 18.3 74 3.1 SE 6 9 3 5 1015.2 1015.0 0.0
30/01:00am 23.1 24.9 18.2 74 3.1 SE 6 9 3 5 1015.3 1015.1 0.0
30/12:30am 23.3 25.1 18.2 73 3.2 SE 6 11 3 6 1015.4 1015.2 0.0
30/12:00am 23.7 25.0 18.4 72 3.3 SE 9 15 5 8 1015.4 1015.2 0.0
 
Date/Time
EST
Temp
°C
App
Temp
°C
Dew
Point
°C
Rel
Hum
%
Delta-T
°C
Wind Press
QNH
hPa
Press
MSL
hPa
Rain since
9am
mm
Dir  Spd
km/h
Gust
km/h
Spd
kts
Gust
kts
29/11:30pm 23.9 25.5 18.3 71 3.5 SE 7 15 4 8 1015.6 1015.4 0.0
29/11:00pm 24.4 25.6 18.3 69 3.8 SE 9 17 5 9 1015.7 1015.5 0.0
29/10:30pm 24.9 26.2 18.4 67 4.1 SE 9 19 5 10 1015.9 1015.7 0.0
29/10:00pm 25.1 25.6 18.3 66 4.3 ESE 13 20 7 11 1016.0 1015.8 0.0
29/09:30pm 25.4 25.8 18.1 64 4.6 ESE 13 17 7 9 1015.8 1015.6 0.0
29/09:00pm 25.5 25.5 18.2 64 4.6 SE 15 28 8 15 1015.5 1015.3 0.0
29/08:30pm 25.6 26.3 18.0 63 4.8 ESE 11 20 6 11 1015.3 1015.1 0.0
29/08:00pm 25.9 25.9 18.1 62 4.9 E 15 24 8 13 1014.9 1014.7 0.0
29/07:30pm 26.2 26.2 18.1 61 5.1 E 15 24 8 13 1014.6 1014.4 0.0
29/07:00pm 26.6 27.4 18.2 60 5.3 ESE 11 20 6 11 1014.3 1014.1 0.0
29/06:30pm 26.8 27.6 18.1 59 5.5 E 11 20 6 11 1013.9 1013.7 0.0
29/06:00pm 27.4 27.0 18.1 57 5.9 ESE 17 30 9 16 1013.6 1013.4 0.0
29/05:30pm 28.1 28.5 18.2 55 6.3 E 13 22 7 12 1013.3 1013.1 0.0
29/05:00pm 28.3 28.7 18.1 54 6.5 E 13 26 7 14 1013.2 1013.0 0.0
29/04:30pm 28.9 29.1 17.7 50 7.1 E 13 20 7 11 1012.9 1012.7 0.0
29/04:00pm 29.4 29.7 17.9 50 7.3 ESE 13 26 7 14 1012.8 1012.6 0.0
29/03:30pm 30.3 30.3 18.1 48 7.8 SE 15 30 8 16 1012.8 1012.6 0.0
29/03:00pm 29.3 28.7 17.5 49 7.5 SE 17 26 9 14 1012.9 1012.7 0.0
29/02:30pm 30.5 30.4 17.9 47 8.1 E 15 26 8 14 1013.4 1013.2 0.0
29/02:00pm 30.6 31.1 18.3 47 7.9 E 13 26 7 14 1013.4 1013.2 0.0
29/01:30pm 30.1 30.0 17.9 48 7.8 ESE 15 26 8 14 1013.7 1013.5 0.0
29/01:00pm 30.6 30.2 18.0 47 8.1 SE 17 26 9 14 1013.9 1013.7 0.0
29/12:30pm 30.7 30.3 18.1 47 8.1 ESE 17 26 9 14 1014.4 1014.2 0.0
29/12:00pm 30.3 30.0 17.4 46 8.2 ENE 15 26 8 14 1014.7 1014.5 0.0
29/11:30am 30.1 29.9 17.5 46 8.0 ENE 15 24 8 13 1015.4 1015.2 0.0
29/11:00am 29.9 30.1 17.7 48 7.8 E 13 24 7 13 1015.8 1015.6 0.0
29/10:30am 28.2 28.2 17.1 51 7.0 ESE 13 22 7 12 1016.1 1015.9 0.0
29/10:00am 27.0 26.0 16.6 53 6.4 ESE 17 30 9 16 1016.3 1016.1 0.0
29/09:30am 25.9 25.7 16.7 57 5.7 ESE 13 22 7 12 1016.4 1016.2 0.0
29/09:00am 24.8 24.3 16.8 61 4.9 ESE 15 28 8 15 1016.3 1016.1 0.0
29/08:30am 23.6 23.5 16.9 66 4.1 ESE 13 22 7 12 1016.3 1016.1 0.0
29/08:00am 22.3 22.9 16.8 71 3.4 ESE 9 13 5 7 1016.0 1015.8 0.0
29/07:30am 20.8 23.4 17.4 81 2.1 CALM 0 0 0 0 1015.7 1015.5 0.0
29/07:00am 19.0 21.2 16.4 85 1.6 CALM 0 0 0 0 1015.4 1015.2 0.0
29/06:30am 19.2 21.4 16.4 84 1.7 CALM 0 0 0 0 1014.9 1014.7 0.0
29/06:00am 19.2 21.0 16.4 84 1.7 SSE 2 6 1 3 1014.8 1014.6 0.0
29/05:30am 19.5 21.3 16.5 83 1.8 SE 2 6 1 3 1014.5 1014.3 0.0
29/05:00am 19.8 22.0 16.6 82 1.9 CALM 0 6 0 3 1014.4 1014.2 0.0
29/04:30am 20.2 22.1 16.8 81 2.1 SE 2 9 1 5 1014.3 1014.1 0.0
29/04:00am 20.5 21.7 16.9 80 2.2 ESE 6 11 3 6 1014.2 1014.0 0.0
29/03:30am 20.8 22.1 17.2 80 2.2 SE 6 9 3 5 1014.2 1014.0 0.0
29/03:00am 21.0 22.1 17.2 79 2.3 SE 7 11 4 6 1014.2 1014.0 0.0
29/02:30am 21.2 22.5 17.2 78 2.5 SE 6 9 3 5 1014.4 1014.2 0.0
29/02:00am 21.8 23.0 17.4 76 2.7 ESE 7 13 4 7 1014.5 1014.3 0.0
29/01:30am 22.1 23.0 17.5 75 2.8 ESE 9 17 5 9 1014.6 1014.4 0.0
29/01:00am 22.1 23.0 17.5 75 2.8 ESE 9 15 5 8 1014.9 1014.7 0.0
29/12:30am 22.3 23.1 17.4 74 3.0 ESE 9 17 5 9 1015.2 1015.0 0.0

Other Formats:

Comma delimited format used in spreadsheet applications
http://www.bom.gov.au/fwo/IDQ60801/IDQ60801.94171.axf

JavaScript Object Notation format (JSON) in row-major order
http://www.bom.gov.au/fwo/IDQ60801/IDQ60801.94171.json